Terminal Aerodrome Forecast
Issued by NWS Cleveland, OH

Home | Current Version | Previous Version | Graphics & Text | Print | Product List | Glossary Off
Versions: 1 2 3 4 5 6 7 8 9 10 11 12 13 14 15 16 17 18 19 20

000
FTUS41 KCLE 301446 AAA
TAFCLE
TAF AMD
KCLE 301446Z 3015/3118 22012KT P6SM VCSH FEW025 SCT040 BKN070
     FM302000 22012G18KT 6SM -TSRA BKN040CB
     FM302300 24007KT 4SM -TSRA BR OVC035CB
     FM310300 03008KT 3SM -SHRA BR OVC015
     FM310800 05014KT 3SM -SHRA BR BKN008 OVC015=

USA.gov is the U.S. government's official web portal to all federal, state and local government web resources and services.